Chickasaw, Louisiana
Current Conditions -  °F | °C
As of 4:15 AM on Sunday 26 Oct 2014 (Local Time) from KBQP Reporting Station
Clear Clear  
Wind Chill: 61°   Ceiling: Unl
Heat Index: 61°   Visibility: 10mi
Dew Point: 56°   Wind: 3mph
Humidity: 86%   Direction: 230°SW
Pressure: 30.03"   Gusts: NA
Location:  32.8667°N, 91.4273°W
Report Text: KBQP 260915Z AUTO 23003KT 10SM CLR 16/14 A3003 RMK AO2 T01600136
Loading
Personal Weather Stations






























Interactive Weather Map
Tropical Storm Tracking
New forecast layout! Learn more

10-Day Weather Forecast

Advertisements
Track Severe Weather on mobile